sensor_id;sensor_type;location;lat;lon;timestamp;P1;durP1;ratioP1;P2;durP2;ratioP2
55869;SDS011;41790;50.940;4.560;2023-03-01T00:02:06;8.98;;;4.97;;
55869;SDS011;41790;50.940;4.560;2023-03-01T00:04:32;10.65;;;5.25;;
55869;SDS011;41790;50.940;4.560;2023-03-01T00:07:01;13.18;;;5.38;;
55869;SDS011;41790;50.940;4.560;2023-03-01T00:09:27;11.38;;;5.22;;
55869;SDS011;41790;50.940;4.560;2023-03-01T00:11:53;11.40;;;5.20;;
55869;SDS011;41790;50.940;4.560;2023-03-01T00:14:19;12.57;;;6.47;;
55869;SDS011;41790;50.940;4.560;2023-03-01T00:16:45;9.10;;;5.45;;
55869;SDS011;41790;50.940;4.560;2023-03-01T00:19:12;7.13;;;4.80;;
55869;SDS011;41790;50.940;4.560;2023-03-01T00:21:40;10.60;;;5.78;;
55869;SDS011;41790;50.940;4.560;2023-03-01T00:24:06;13.57;;;6.65;;
55869;SDS011;41790;50.940;4.560;2023-03-01T00:26:33;11.15;;;6.18;;
55869;SDS011;41790;50.940;4.560;2023-03-01T00:28:59;14.23;;;6.32;;
55869;SDS011;41790;50.940;4.560;2023-03-01T00:31:27;12.30;;;5.78;;
55869;SDS011;41790;50.940;4.560;2023-03-01T00:33:57;11.50;;;6.50;;
55869;SDS011;41790;50.940;4.560;2023-03-01T00:36:25;20.42;;;6.82;;
55869;SDS011;41790;50.940;4.560;2023-03-01T00:38:53;13.73;;;6.57;;
55869;SDS011;41790;50.940;4.560;2023-03-01T00:41:23;18.33;;;7.95;;
55869;SDS011;41790;50.940;4.560;2023-03-01T00:43:51;19.23;;;7.55;;
55869;SDS011;41790;50.940;4.560;2023-03-01T00:46:18;14.45;;;7.35;;
55869;SDS011;41790;50.940;4.560;2023-03-01T00:48:45;11.95;;;7.15;;
55869;SDS011;41790;50.940;4.560;2023-03-01T00:51:13;11.57;;;6.57;;
55869;SDS011;41790;50.940;4.560;2023-03-01T00:53:43;11.15;;;6.28;;
55869;SDS011;41790;50.940;4.560;2023-03-01T00:56:12;14.63;;;7.90;;
55869;SDS011;41790;50.940;4.560;2023-03-01T00:58:45;13.43;;;6.95;;
55869;SDS011;41790;50.940;4.560;2023-03-01T01:01:16;16.83;;;7.07;;
55869;SDS011;41790;50.940;4.560;2023-03-01T01:03:48;16.83;;;7.28;;
55869;SDS011;41790;50.940;4.560;2023-03-01T01:06:26;12.80;;;6.80;;
55869;SDS011;41790;50.940;4.560;2023-03-01T01:08:57;11.50;;;6.30;;
55869;SDS011;41790;50.940;4.560;2023-03-01T01:11:23;12.80;;;6.63;;
55869;SDS011;41790;50.940;4.560;2023-03-01T01:13:51;12.60;;;6.95;;
55869;SDS011;41790;50.940;4.560;2023-03-01T01:16:19;12.18;;;6.95;;
55869;SDS011;41790;50.940;4.560;2023-03-01T01:18:47;11.20;;;6.05;;
55869;SDS011;41790;50.940;4.560;2023-03-01T01:21:14;17.15;;;8.20;;
55869;SDS011;41790;50.940;4.560;2023-03-01T01:23:42;12.77;;;7.20;;
55869;SDS011;41790;50.940;4.560;2023-03-01T01:26:14;12.85;;;6.93;;
55869;SDS011;41790;50.940;4.560;2023-03-01T01:28:45;17.48;;;6.72;;
55869;SDS011;41790;50.940;4.560;2023-03-01T01:31:11;13.63;;;7.22;;
55869;SDS011;41790;50.940;4.560;2023-03-01T01:33:38;15.07;;;7.68;;
55869;SDS011;41790;50.940;4.560;2023-03-01T01:36:04;15.13;;;7.75;;
55869;SDS011;41790;50.940;4.560;2023-03-01T01:38:31;19.80;;;7.38;;
55869;SDS011;41790;50.940;4.560;2023-03-01T01:40:58;13.25;;;6.40;;
55869;SDS011;41790;50.940;4.560;2023-03-01T01:45:50;13.57;;;7.78;;
55869;SDS011;41790;50.940;4.560;2023-03-01T01:48:20;12.20;;;6.50;;
55869;SDS011;41790;50.940;4.560;2023-03-01T01:50:51;13.35;;;6.68;;
55869;SDS011;41790;50.940;4.560;2023-03-01T01:53:24;12.55;;;7.20;;
55869;SDS011;41790;50.940;4.560;2023-03-01T01:55:55;13.15;;;6.78;;
55869;SDS011;41790;50.940;4.560;2023-03-01T01:58:23;15.82;;;7.38;;
55869;SDS011;41790;50.940;4.560;2023-03-01T02:00:52;13.90;;;7.55;;
55869;SDS011;41790;50.940;4.560;2023-03-01T02:03:20;12.73;;;6.72;;
55869;SDS011;41790;50.940;4.560;2023-03-01T02:08:20;13.02;;;6.55;;
55869;SDS011;41790;50.940;4.560;2023-03-01T02:10:48;14.73;;;6.57;;
55869;SDS011;41790;50.940;4.560;2023-03-01T02:13:15;14.52;;;8.02;;
55869;SDS011;41790;50.940;4.560;2023-03-01T02:15:48;11.25;;;6.97;;
55869;SDS011;41790;50.940;4.560;2023-03-01T02:18:18;11.85;;;5.82;;
55869;SDS011;41790;50.940;4.560;2023-03-01T02:23:18;15.25;;;6.68;;
55869;SDS011;41790;50.940;4.560;2023-03-01T02:26:00;11.07;;;5.97;;
55869;SDS011;41790;50.940;4.560;2023-03-01T02:28:42;15.30;;;7.35;;
55869;SDS011;41790;50.940;4.560;2023-03-01T02:31:10;20.33;;;5.78;;
55869;SDS011;41790;50.940;4.560;2023-03-01T02:33:58;15.68;;;7.00;;
55869;SDS011;41790;50.940;4.560;2023-03-01T02:36:30;11.73;;;6.15;;
55869;SDS011;41790;50.940;4.560;2023-03-01T02:39:04;20.65;;;7.15;;
55869;SDS011;41790;50.940;4.560;2023-03-01T02:41:32;11.77;;;6.35;;
55869;SDS011;41790;50.940;4.560;2023-03-01T02:44:02;17.15;;;6.88;;
55869;SDS011;41790;50.940;4.560;2023-03-01T02:46:41;22.42;;;4.95;;
55869;SDS011;41790;50.940;4.560;2023-03-01T02:49:21;16.98;;;7.07;;
55869;SDS011;41790;50.940;4.560;2023-03-01T02:57:20;13.85;;;7.78;;
55869;SDS011;41790;50.940;4.560;2023-03-01T02:59:48;14.98;;;6.85;;
55869;SDS011;41790;50.940;4.560;2023-03-01T03:02:27;20.48;;;6.95;;
55869;SDS011;41790;50.940;4.560;2023-03-01T03:07:33;17.88;;;7.97;;
55869;SDS011;41790;50.940;4.560;2023-03-01T03:10:02;20.73;;;8.52;;
55869;SDS011;41790;50.940;4.560;2023-03-01T03:12:29;14.10;;;6.65;;
55869;SDS011;41790;50.940;4.560;2023-03-01T03:14:59;14.05;;;6.95;;
55869;SDS011;41790;50.940;4.560;2023-03-01T03:17:25;16.95;;;7.30;;
55869;SDS011;41790;50.940;4.560;2023-03-01T03:20:03;11.90;;;6.00;;
55869;SDS011;41790;50.940;4.560;2023-03-01T03:22:32;13.48;;;5.85;;
55869;SDS011;41790;50.940;4.560;2023-03-01T03:25:01;15.02;;;6.78;;
55869;SDS011;41790;50.940;4.560;2023-03-01T03:27:36;15.82;;;7.68;;
55869;SDS011;41790;50.940;4.560;2023-03-01T03:30:03;10.25;;;5.65;;
55869;SDS011;41790;50.940;4.560;2023-03-01T03:32:37;11.45;;;6.65;;
55869;SDS011;41790;50.940;4.560;2023-03-01T03:35:04;11.95;;;6.55;;
55869;SDS011;41790;50.940;4.560;2023-03-01T03:37:40;12.27;;;6.93;;
55869;SDS011;41790;50.940;4.560;2023-03-01T03:40:25;10.68;;;6.53;;
55869;SDS011;41790;50.940;4.560;2023-03-01T03:42:52;11.80;;;6.78;;
55869;SDS011;41790;50.940;4.560;2023-03-01T03:45:21;11.50;;;5.80;;
55869;SDS011;41790;50.940;4.560;2023-03-01T03:47:50;9.77;;;6.07;;
55869;SDS011;41790;50.940;4.560;2023-03-01T03:50:21;11.00;;;5.15;;
55869;SDS011;41790;50.940;4.560;2023-03-01T03:52:47;15.43;;;6.78;;
55869;SDS011;41790;50.940;4.560;2023-03-01T03:55:15;15.05;;;5.72;;
55869;SDS011;41790;50.940;4.560;2023-03-01T03:57:44;15.85;;;5.28;;
55869;SDS011;41790;50.940;4.560;2023-03-01T04:00:22;19.23;;;5.93;;
55869;SDS011;41790;50.940;4.560;2023-03-01T04:02:49;12.35;;;5.55;;
55869;SDS011;41790;50.940;4.560;2023-03-01T04:05:16;10.60;;;5.90;;
55869;SDS011;41790;50.940;4.560;2023-03-01T04:07:43;11.55;;;5.93;;
55869;SDS011;41790;50.940;4.560;2023-03-01T04:10:13;9.85;;;5.68;;
55869;SDS011;41790;50.940;4.560;2023-03-01T04:12:42;11.40;;;5.55;;
55869;SDS011;41790;50.940;4.560;2023-03-01T04:15:11;10.15;;;5.82;;
55869;SDS011;41790;50.940;4.560;2023-03-01T04:17:40;12.00;;;6.60;;
55869;SDS011;41790;50.940;4.560;2023-03-01T04:20:11;14.48;;;5.88;;
55869;SDS011;41790;50.940;4.560;2023-03-01T04:22:42;9.02;;;4.57;;
55869;SDS011;41790;50.940;4.560;2023-03-01T04:25:16;8.68;;;5.18;;
55869;SDS011;41790;50.940;4.560;2023-03-01T04:27:41;8.70;;;5.47;;
55869;SDS011;41790;50.940;4.560;2023-03-01T04:30:10;10.73;;;5.82;;
55869;SDS011;41790;50.940;4.560;2023-03-01T04:32:36;15.07;;;5.95;;
55869;SDS011;41790;50.940;4.560;2023-03-01T04:35:04;11.75;;;6.63;;
55869;SDS011;41790;50.940;4.560;2023-03-01T04:37:30;11.65;;;5.68;;
55869;SDS011;41790;50.940;4.560;2023-03-01T04:40:06;9.70;;;5.05;;
55869;SDS011;41790;50.940;4.560;2023-03-01T04:42:41;10.30;;;5.13;;
55869;SDS011;41790;50.940;4.560;2023-03-01T04:45:07;10.38;;;5.20;;
55869;SDS011;41790;50.940;4.560;2023-03-01T04:47:40;8.32;;;5.38;;
55869;SDS011;41790;50.940;4.560;2023-03-01T04:50:12;8.20;;;4.93;;
55869;SDS011;41790;50.940;4.560;2023-03-01T04:52:41;8.73;;;5.18;;
55869;SDS011;41790;50.940;4.560;2023-03-01T04:55:08;9.80;;;5.15;;
55869;SDS011;41790;50.940;4.560;2023-03-01T04:57:35;10.43;;;5.53;;
55869;SDS011;41790;50.940;4.560;2023-03-01T05:00:01;9.93;;;5.38;;
55869;SDS011;41790;50.940;4.560;2023-03-01T05:02:44;8.07;;;5.28;;
55869;SDS011;41790;50.940;4.560;2023-03-01T05:05:11;7.85;;;4.95;;
55869;SDS011;41790;50.940;4.560;2023-03-01T05:07:40;9.43;;;5.43;;
55869;SDS011;41790;50.940;4.560;2023-03-01T05:10:06;8.60;;;4.32;;
55869;SDS011;41790;50.940;4.560;2023-03-01T05:12:35;8.57;;;4.97;;
55869;SDS011;41790;50.940;4.560;2023-03-01T05:15:04;12.20;;;6.25;;
55869;SDS011;41790;50.940;4.560;2023-03-01T05:17:32;8.52;;;5.30;;
55869;SDS011;41790;50.940;4.560;2023-03-01T05:20:01;13.40;;;6.40;;
55869;SDS011;41790;50.940;4.560;2023-03-01T05:22:31;10.75;;;5.28;;
55869;SDS011;41790;50.940;4.560;2023-03-01T05:25:01;8.40;;;5.55;;
55869;SDS011;41790;50.940;4.560;2023-03-01T05:27:27;12.10;;;5.15;;
55869;SDS011;41790;50.940;4.560;2023-03-01T05:29:54;13.70;;;5.47;;
55869;SDS011;41790;50.940;4.560;2023-03-01T05:32:23;11.32;;;4.85;;
55869;SDS011;41790;50.940;4.560;2023-03-01T05:34:49;12.38;;;5.43;;
55869;SDS011;41790;50.940;4.560;2023-03-01T05:37:17;7.28;;;4.35;;
55869;SDS011;41790;50.940;4.560;2023-03-01T05:39:45;11.30;;;5.78;;
55869;SDS011;41790;50.940;4.560;2023-03-01T05:42:11;11.50;;;5.25;;
55869;SDS011;41790;50.940;4.560;2023-03-01T05:44:39;9.70;;;4.85;;
55869;SDS011;41790;50.940;4.560;2023-03-01T05:47:08;10.15;;;5.18;;
55869;SDS011;41790;50.940;4.560;2023-03-01T05:49:34;9.98;;;5.25;;
55869;SDS011;41790;50.940;4.560;2023-03-01T05:52:00;7.55;;;4.25;;
55869;SDS011;41790;50.940;4.560;2023-03-01T05:54:26;11.20;;;4.88;;
55869;SDS011;41790;50.940;4.560;2023-03-01T05:56:54;9.02;;;4.97;;
55869;SDS011;41790;50.940;4.560;2023-03-01T05:59:23;12.38;;;5.70;;
55869;SDS011;41790;50.940;4.560;2023-03-01T06:01:49;13.25;;;4.95;;
55869;SDS011;41790;50.940;4.560;2023-03-01T06:04:24;8.65;;;4.30;;
55869;SDS011;41790;50.940;4.560;2023-03-01T06:07:00;12.90;;;4.90;;
55869;SDS011;41790;50.940;4.560;2023-03-01T06:09:29;9.35;;;4.88;;
55869;SDS011;41790;50.940;4.560;2023-03-01T06:11:54;9.02;;;5.18;;
55869;SDS011;41790;50.940;4.560;2023-03-01T06:14:20;8.85;;;4.65;;
55869;SDS011;41790;50.940;4.560;2023-03-01T06:16:46;10.68;;;4.95;;
55869;SDS011;41790;50.940;4.560;2023-03-01T06:19:12;8.82;;;4.38;;
55869;SDS011;41790;50.940;4.560;2023-03-01T06:21:38;20.63;;;4.70;;
55869;SDS011;41790;50.940;4.560;2023-03-01T06:24:04;8.52;;;4.80;;
55869;SDS011;41790;50.940;4.560;2023-03-01T06:26:32;9.80;;;5.35;;
55869;SDS011;41790;50.940;4.560;2023-03-01T06:28:58;8.40;;;4.57;;
55869;SDS011;41790;50.940;4.560;2023-03-01T06:31:24;9.13;;;4.28;;
55869;SDS011;41790;50.940;4.560;2023-03-01T06:33:50;6.18;;;4.18;;
55869;SDS011;41790;50.940;4.560;2023-03-01T06:36:15;8.70;;;4.80;;
55869;SDS011;41790;50.940;4.560;2023-03-01T06:38:43;7.95;;;4.70;;
55869;SDS011;41790;50.940;4.560;2023-03-01T06:41:09;7.03;;;4.15;;
55869;SDS011;41790;50.940;4.560;2023-03-01T06:43:35;12.05;;;5.70;;
55869;SDS011;41790;50.940;4.560;2023-03-01T06:46:03;7.43;;;4.90;;
55869;SDS011;41790;50.940;4.560;2023-03-01T06:48:31;8.52;;;4.15;;
55869;SDS011;41790;50.940;4.560;2023-03-01T06:50:58;11.43;;;5.43;;
55869;SDS011;41790;50.940;4.560;2023-03-01T06:53:26;14.93;;;5.28;;
55869;SDS011;41790;50.940;4.560;2023-03-01T06:55:56;8.30;;;5.15;;
55869;SDS011;41790;50.940;4.560;2023-03-01T06:58:27;15.45;;;5.65;;
55869;SDS011;41790;50.940;4.560;2023-03-01T07:00:56;10.93;;;5.25;;
55869;SDS011;41790;50.940;4.560;2023-03-01T07:03:22;11.52;;;4.60;;
55869;SDS011;41790;50.940;4.560;2023-03-01T07:05:48;9.18;;;5.22;;
55869;SDS011;41790;50.940;4.560;2023-03-01T07:08:17;9.25;;;4.18;;
55869;SDS011;41790;50.940;4.560;2023-03-01T07:10:44;9.38;;;5.75;;
55869;SDS011;41790;50.940;4.560;2023-03-01T07:13:12;10.35;;;4.88;;
55869;SDS011;41790;50.940;4.560;2023-03-01T07:15:39;9.73;;;5.30;;
55869;SDS011;41790;50.940;4.560;2023-03-01T07:18:06;8.15;;;4.80;;
55869;SDS011;41790;50.940;4.560;2023-03-01T07:20:32;13.00;;;4.82;;
55869;SDS011;41790;50.940;4.560;2023-03-01T07:22:58;6.32;;;4.28;;
55869;SDS011;41790;50.940;4.560;2023-03-01T07:25:24;9.68;;;5.65;;
55869;SDS011;41790;50.940;4.560;2023-03-01T07:27:55;7.78;;;4.93;;
55869;SDS011;41790;50.940;4.560;2023-03-01T07:30:21;7.35;;;4.97;;
55869;SDS011;41790;50.940;4.560;2023-03-01T07:32:50;13.43;;;4.72;;
55869;SDS011;41790;50.940;4.560;2023-03-01T07:35:25;10.35;;;5.57;;
55869;SDS011;41790;50.940;4.560;2023-03-01T07:37:52;22.38;;;5.55;;
55869;SDS011;41790;50.940;4.560;2023-03-01T07:40:18;9.77;;;5.43;;
55869;SDS011;41790;50.940;4.560;2023-03-01T07:42:44;13.80;;;5.07;;
55869;SDS011;41790;50.940;4.560;2023-03-01T07:45:10;10.77;;;4.97;;
55869;SDS011;41790;50.940;4.560;2023-03-01T07:47:38;9.57;;;5.43;;
55869;SDS011;41790;50.940;4.560;2023-03-01T07:50:04;7.55;;;4.63;;
55869;SDS011;41790;50.940;4.560;2023-03-01T07:52:31;9.55;;;5.50;;
55869;SDS011;41790;50.940;4.560;2023-03-01T07:54:57;10.27;;;4.90;;
55869;SDS011;41790;50.940;4.560;2023-03-01T07:57:23;10.40;;;5.10;;
55869;SDS011;41790;50.940;4.560;2023-03-01T07:59:49;9.52;;;5.40;;
55869;SDS011;41790;50.940;4.560;2023-03-01T08:02:15;8.68;;;4.70;;
55869;SDS011;41790;50.940;4.560;2023-03-01T08:04:51;8.68;;;4.82;;
55869;SDS011;41790;50.940;4.560;2023-03-01T08:07:17;7.32;;;4.60;;
55869;SDS011;41790;50.940;4.560;2023-03-01T08:09:43;7.53;;;4.80;;
55869;SDS011;41790;50.940;4.560;2023-03-01T08:12:08;11.63;;;6.10;;
55869;SDS011;41790;50.940;4.560;2023-03-01T08:14:34;11.95;;;5.18;;
55869;SDS011;41790;50.940;4.560;2023-03-01T08:17:00;6.75;;;4.50;;
55869;SDS011;41790;50.940;4.560;2023-03-01T08:19:28;9.88;;;5.15;;
55869;SDS011;41790;50.940;4.560;2023-03-01T08:21:54;11.52;;;5.72;;
55869;SDS011;41790;50.940;4.560;2023-03-01T08:24:23;8.38;;;4.88;;
55869;SDS011;41790;50.940;4.560;2023-03-01T08:26:49;9.35;;;4.55;;
55869;SDS011;41790;50.940;4.560;2023-03-01T08:29:15;7.07;;;4.80;;
55869;SDS011;41790;50.940;4.560;2023-03-01T08:31:41;8.05;;;4.80;;
55869;SDS011;41790;50.940;4.560;2023-03-01T08:34:09;16.17;;;6.75;;
55869;SDS011;41790;50.940;4.560;2023-03-01T08:36:41;11.75;;;5.13;;
55869;SDS011;41790;50.940;4.560;2023-03-01T08:39:09;10.35;;;5.32;;
55869;SDS011;41790;50.940;4.560;2023-03-01T08:41:37;7.40;;;4.60;;
55869;SDS011;41790;50.940;4.560;2023-03-01T08:44:03;12.20;;;5.50;;
55869;SDS011;41790;50.940;4.560;2023-03-01T08:46:32;9.55;;;5.22;;
55869;SDS011;41790;50.940;4.560;2023-03-01T08:49:03;10.68;;;5.70;;
55869;SDS011;41790;50.940;4.560;2023-03-01T08:51:40;7.63;;;5.15;;
55869;SDS011;41790;50.940;4.560;2023-03-01T08:54:07;8.73;;;5.80;;
55869;SDS011;41790;50.940;4.560;2023-03-01T08:56:37;8.32;;;5.03;;
55869;SDS011;41790;50.940;4.560;2023-03-01T08:59:03;8.20;;;4.47;;
55869;SDS011;41790;50.940;4.560;2023-03-01T09:01:29;8.60;;;4.97;;
55869;SDS011;41790;50.940;4.560;2023-03-01T09:03:55;11.10;;;5.80;;
55869;SDS011;41790;50.940;4.560;2023-03-01T09:06:21;11.90;;;5.32;;
55869;SDS011;41790;50.940;4.560;2023-03-01T09:08:47;9.70;;;5.65;;
55869;SDS011;41790;50.940;4.560;2023-03-01T09:11:16;8.15;;;5.72;;
55869;SDS011;41790;50.940;4.560;2023-03-01T09:13:44;11.25;;;5.90;;
55869;SDS011;41790;50.940;4.560;2023-03-01T09:16:13;10.13;;;5.53;;
55869;SDS011;41790;50.940;4.560;2023-03-01T09:18:40;8.02;;;5.30;;
55869;SDS011;41790;50.940;4.560;2023-03-01T09:21:07;7.82;;;4.60;;
55869;SDS011;41790;50.940;4.560;2023-03-01T09:23:38;10.10;;;5.68;;
55869;SDS011;41790;50.940;4.560;2023-03-01T09:26:06;9.88;;;5.07;;
55869;SDS011;41790;50.940;4.560;2023-03-01T09:28:34;14.15;;;4.97;;
55869;SDS011;41790;50.940;4.560;2023-03-01T09:31:04;13.68;;;6.00;;
55869;SDS011;41790;50.940;4.560;2023-03-01T09:33:30;8.18;;;5.22;;
55869;SDS011;41790;50.940;4.560;2023-03-01T09:36:02;8.73;;;4.95;;
55869;SDS011;41790;50.940;4.560;2023-03-01T09:38:30;9.95;;;5.15;;
55869;SDS011;41790;50.940;4.560;2023-03-01T09:40:56;10.63;;;5.78;;
55869;SDS011;41790;50.940;4.560;2023-03-01T09:45:59;12.98;;;5.82;;
55869;SDS011;41790;50.940;4.560;2023-03-01T09:48:28;15.35;;;6.22;;
55869;SDS011;41790;50.940;4.560;2023-03-01T09:51:02;10.20;;;5.72;;
55869;SDS011;41790;50.940;4.560;2023-03-01T09:53:34;12.60;;;6.10;;
55869;SDS011;41790;50.940;4.560;2023-03-01T09:56:02;6.90;;;4.30;;
55869;SDS011;41790;50.940;4.560;2023-03-01T10:06:58;8.68;;;5.38;;
55869;SDS011;41790;50.940;4.560;2023-03-01T10:09:26;8.52;;;4.80;;
55869;SDS011;41790;50.940;4.560;2023-03-01T10:11:57;11.02;;;5.25;;
55869;SDS011;41790;50.940;4.560;2023-03-01T10:14:39;15.13;;;4.82;;
55869;SDS011;41790;50.940;4.560;2023-03-01T10:17:20;9.68;;;5.30;;
55869;SDS011;41790;50.940;4.560;2023-03-01T10:19:49;12.27;;;5.70;;
55869;SDS011;41790;50.940;4.560;2023-03-01T10:22:22;11.73;;;5.57;;
55869;SDS011;41790;50.940;4.560;2023-03-01T10:24:53;8.07;;;5.07;;
55869;SDS011;41790;50.940;4.560;2023-03-01T10:27:23;11.65;;;5.70;;
55869;SDS011;41790;50.940;4.560;2023-03-01T10:32:36;8.88;;;5.10;;
55869;SDS011;41790;50.940;4.560;2023-03-01T10:35:19;12.68;;;5.88;;
55869;SDS011;41790;50.940;4.560;2023-03-01T10:38:00;13.35;;;5.00;;
55869;SDS011;41790;50.940;4.560;2023-03-01T10:40:57;10.27;;;4.85;;
55869;SDS011;41790;50.940;4.560;2023-03-01T10:46:24;9.20;;;4.95;;
55869;SDS011;41790;50.940;4.560;2023-03-01T10:51:45;7.50;;;4.50;;
55869;SDS011;41790;50.940;4.560;2023-03-01T10:56:54;8.15;;;4.80;;
55869;SDS011;41790;50.940;4.560;2023-03-01T10:59:27;12.38;;;5.28;;
55869;SDS011;41790;50.940;4.560;2023-03-01T11:10:17;10.20;;;4.93;;
55869;SDS011;41790;50.940;4.560;2023-03-01T11:12:44;8.63;;;5.40;;
55869;SDS011;41790;50.940;4.560;2023-03-01T11:15:24;7.63;;;4.57;;
55869;SDS011;41790;50.940;4.560;2023-03-01T11:17:52;9.23;;;5.13;;
55869;SDS011;41790;50.940;4.560;2023-03-01T11:20:23;11.60;;;5.78;;
55869;SDS011;41790;50.940;4.560;2023-03-01T11:23:02;8.65;;;4.45;;
55869;SDS011;41790;50.940;4.560;2023-03-01T11:25:46;10.50;;;4.60;;
55869;SDS011;41790;50.940;4.560;2023-03-01T11:28:22;9.75;;;4.78;;
55869;SDS011;41790;50.940;4.560;2023-03-01T11:36:31;10.40;;;4.85;;
55869;SDS011;41790;50.940;4.560;2023-03-01T11:39:03;11.50;;;4.32;;
55869;SDS011;41790;50.940;4.560;2023-03-01T11:41:52;10.73;;;5.35;;
55869;SDS011;41790;50.940;4.560;2023-03-01T11:44:28;9.60;;;4.57;;
55869;SDS011;41790;50.940;4.560;2023-03-01T11:47:08;8.35;;;4.25;;
55869;SDS011;41790;50.940;4.560;2023-03-01T11:49:54;8.98;;;5.03;;
55869;SDS011;41790;50.940;4.560;2023-03-01T12:01:09;11.43;;;5.05;;
55869;SDS011;41790;50.940;4.560;2023-03-01T12:12:23;10.65;;;5.53;;
55869;SDS011;41790;50.940;4.560;2023-03-01T12:18:32;12.18;;;6.28;;
55869;SDS011;41790;50.940;4.560;2023-03-01T12:21:08;7.97;;;4.85;;
55869;SDS011;41790;50.940;4.560;2023-03-01T12:26:42;10.63;;;4.47;;
55869;SDS011;41790;50.940;4.560;2023-03-01T12:29:34;8.88;;;4.97;;
55869;SDS011;41790;50.940;4.560;2023-03-01T12:34:54;9.48;;;4.75;;
55869;SDS011;41790;50.940;4.560;2023-03-01T12:37:40;7.38;;;4.70;;
55869;SDS011;41790;50.940;4.560;2023-03-01T12:51:35;8.57;;;4.60;;
55869;SDS011;41790;50.940;4.560;2023-03-01T12:54:16;8.30;;;5.00;;
55869;SDS011;41790;50.940;4.560;2023-03-01T12:56:51;9.30;;;5.10;;
55869;SDS011;41790;50.940;4.560;2023-03-01T12:59:20;12.02;;;5.40;;
55869;SDS011;41790;50.940;4.560;2023-03-01T13:12:46;11.48;;;5.35;;
55869;SDS011;41790;50.940;4.560;2023-03-01T13:17:53;9.23;;;4.97;;
55869;SDS011;41790;50.940;4.560;2023-03-01T13:20:45;9.43;;;4.85;;
55869;SDS011;41790;50.940;4.560;2023-03-01T13:28:37;7.53;;;4.40;;
55869;SDS011;41790;50.940;4.560;2023-03-01T13:46:58;10.13;;;5.10;;
55869;SDS011;41790;50.940;4.560;2023-03-01T13:49:45;11.77;;;5.20;;
55869;SDS011;41790;50.940;4.560;2023-03-01T13:54:57;8.63;;;5.25;;
55869;SDS011;41790;50.940;4.560;2023-03-01T13:57:29;13.40;;;5.78;;
55869;SDS011;41790;50.940;4.560;2023-03-01T13:59:59;9.25;;;5.35;;
55869;SDS011;41790;50.940;4.560;2023-03-01T14:02:25;8.75;;;4.70;;
55869;SDS011;41790;50.940;4.560;2023-03-01T14:04:57;10.77;;;5.80;;
55869;SDS011;41790;50.940;4.560;2023-03-01T14:07:25;8.35;;;4.78;;
55869;SDS011;41790;50.940;4.560;2023-03-01T14:09:58;8.48;;;4.68;;
55869;SDS011;41790;50.940;4.560;2023-03-01T14:15:19;8.90;;;4.10;;
55869;SDS011;41790;50.940;4.560;2023-03-01T14:22:48;8.98;;;5.00;;
55869;SDS011;41790;50.940;4.560;2023-03-01T14:25:22;16.33;;;5.38;;
55869;SDS011;41790;50.940;4.560;2023-03-01T14:28:04;8.77;;;4.75;;
55869;SDS011;41790;50.940;4.560;2023-03-01T14:30:42;8.68;;;5.20;;
55869;SDS011;41790;50.940;4.560;2023-03-01T14:33:19;9.07;;;4.78;;
55869;SDS011;41790;50.940;4.560;2023-03-01T14:38:21;12.52;;;5.65;;
55869;SDS011;41790;50.940;4.560;2023-03-01T14:40:48;10.98;;;5.32;;
55869;SDS011;41790;50.940;4.560;2023-03-01T14:43:20;10.23;;;5.53;;
55869;SDS011;41790;50.940;4.560;2023-03-01T14:45:49;11.80;;;5.13;;
55869;SDS011;41790;50.940;4.560;2023-03-01T14:48:16;12.18;;;4.82;;
55869;SDS011;41790;50.940;4.560;2023-03-01T14:50:43;9.05;;;4.80;;
55869;SDS011;41790;50.940;4.560;2023-03-01T14:53:19;12.23;;;5.93;;
55869;SDS011;41790;50.940;4.560;2023-03-01T14:55:53;8.35;;;4.72;;
55869;SDS011;41790;50.940;4.560;2023-03-01T14:58:24;11.02;;;5.32;;
55869;SDS011;41790;50.940;4.560;2023-03-01T15:00:52;12.90;;;5.32;;
55869;SDS011;41790;50.940;4.560;2023-03-01T15:06:09;9.07;;;5.22;;
55869;SDS011;41790;50.940;4.560;2023-03-01T15:08:37;11.35;;;5.68;;
55869;SDS011;41790;50.940;4.560;2023-03-01T15:11:29;10.55;;;4.50;;
55869;SDS011;41790;50.940;4.560;2023-03-01T15:13:56;8.30;;;5.13;;
55869;SDS011;41790;50.940;4.560;2023-03-01T15:18:56;7.43;;;4.53;;
55869;SDS011;41790;50.940;4.560;2023-03-01T15:24:01;10.23;;;4.93;;
55869;SDS011;41790;50.940;4.560;2023-03-01T15:26:44;10.65;;;4.53;;
55869;SDS011;41790;50.940;4.560;2023-03-01T15:29:24;11.40;;;4.55;;
55869;SDS011;41790;50.940;4.560;2023-03-01T15:31:58;13.35;;;4.72;;
55869;SDS011;41790;50.940;4.560;2023-03-01T15:34:29;8.85;;;5.00;;
55869;SDS011;41790;50.940;4.560;2023-03-01T15:37:03;6.25;;;3.78;;
55869;SDS011;41790;50.940;4.560;2023-03-01T15:39:34;9.23;;;4.47;;
55869;SDS011;41790;50.940;4.560;2023-03-01T15:42:12;6.78;;;3.72;;
55869;SDS011;41790;50.940;4.560;2023-03-01T15:45:09;7.22;;;4.88;;
55869;SDS011;41790;50.940;4.560;2023-03-01T15:47:46;8.13;;;4.60;;
55869;SDS011;41790;50.940;4.560;2023-03-01T15:50:25;13.38;;;4.80;;
55869;SDS011;41790;50.940;4.560;2023-03-01T15:52:53;10.00;;;3.95;;
55869;SDS011;41790;50.940;4.560;2023-03-01T15:55:23;11.82;;;4.18;;
55869;SDS011;41790;50.940;4.560;2023-03-01T15:58:05;10.27;;;4.53;;
55869;SDS011;41790;50.940;4.560;2023-03-01T16:00:52;14.50;;;4.60;;
55869;SDS011;41790;50.940;4.560;2023-03-01T16:03:21;10.07;;;4.30;;
55869;SDS011;41790;50.940;4.560;2023-03-01T16:05:49;6.47;;;4.10;;
55869;SDS011;41790;50.940;4.560;2023-03-01T16:08:15;9.43;;;4.30;;
55869;SDS011;41790;50.940;4.560;2023-03-01T16:10:43;6.22;;;4.10;;
55869;SDS011;41790;50.940;4.560;2023-03-01T16:13:10;8.80;;;4.30;;
55869;SDS011;41790;50.940;4.560;2023-03-01T16:15:36;7.20;;;4.03;;
55869;SDS011;41790;50.940;4.560;2023-03-01T16:18:03;8.85;;;4.18;;
55869;SDS011;41790;50.940;4.560;2023-03-01T16:20:35;11.27;;;3.88;;
55869;SDS011;41790;50.940;4.560;2023-03-01T16:23:01;7.65;;;3.90;;
55869;SDS011;41790;50.940;4.560;2023-03-01T16:25:30;6.45;;;3.38;;
55869;SDS011;41790;50.940;4.560;2023-03-01T16:27:57;5.75;;;3.35;;
55869;SDS011;41790;50.940;4.560;2023-03-01T16:30:25;6.95;;;4.07;;
55869;SDS011;41790;50.940;4.560;2023-03-01T16:32:52;7.30;;;3.78;;
55869;SDS011;41790;50.940;4.560;2023-03-01T16:35:19;6.43;;;3.90;;
55869;SDS011;41790;50.940;4.560;2023-03-01T16:37:46;7.38;;;4.90;;
55869;SDS011;41790;50.940;4.560;2023-03-01T16:40:17;12.05;;;4.63;;
55869;SDS011;41790;50.940;4.560;2023-03-01T16:42:49;10.02;;;5.25;;
55869;SDS011;41790;50.940;4.560;2023-03-01T16:45:15;8.90;;;4.47;;
55869;SDS011;41790;50.940;4.560;2023-03-01T16:47:42;9.60;;;4.93;;
55869;SDS011;41790;50.940;4.560;2023-03-01T16:50:08;11.57;;;5.07;;
55869;SDS011;41790;50.940;4.560;2023-03-01T16:52:35;12.15;;;4.60;;
55869;SDS011;41790;50.940;4.560;2023-03-01T16:55:04;13.35;;;4.78;;
55869;SDS011;41790;50.940;4.560;2023-03-01T16:57:35;9.20;;;4.30;;
55869;SDS011;41790;50.940;4.560;2023-03-01T17:00:03;8.10;;;4.00;;
55869;SDS011;41790;50.940;4.560;2023-03-01T17:02:34;11.45;;;4.43;;
55869;SDS011;41790;50.940;4.560;2023-03-01T17:05:00;14.07;;;5.30;;
55869;SDS011;41790;50.940;4.560;2023-03-01T17:07:28;10.95;;;4.32;;
55869;SDS011;41790;50.940;4.560;2023-03-01T17:09:58;9.52;;;4.60;;
55869;SDS011;41790;50.940;4.560;2023-03-01T17:12:25;13.07;;;4.72;;
55869;SDS011;41790;50.940;4.560;2023-03-01T17:14:51;9.35;;;4.53;;
55869;SDS011;41790;50.940;4.560;2023-03-01T17:17:17;11.85;;;4.53;;
55869;SDS011;41790;50.940;4.560;2023-03-01T17:19:42;8.73;;;4.07;;
55869;SDS011;41790;50.940;4.560;2023-03-01T17:22:11;9.57;;;4.05;;
55869;SDS011;41790;50.940;4.560;2023-03-01T17:24:41;7.95;;;4.40;;